sensor_id;sensor_type;location;lat;lon;timestamp;P1;durP1;ratioP1;P2;durP2;ratioP2
71108;SDS011;59614;51.012;-1.648;2023-02-15T00:01:28;55.90;;;31.63;;
71108;SDS011;59614;51.012;-1.648;2023-02-15T00:03:54;54.85;;;31.83;;
71108;SDS011;59614;51.012;-1.648;2023-02-15T00:06:19;50.88;;;31.35;;
71108;SDS011;59614;51.012;-1.648;2023-02-15T00:08:45;50.80;;;30.55;;
71108;SDS011;59614;51.012;-1.648;2023-02-15T00:11:15;52.05;;;30.40;;
71108;SDS011;59614;51.012;-1.648;2023-02-15T00:14:02;55.30;;;31.95;;
71108;SDS011;59614;51.012;-1.648;2023-02-15T00:16:28;55.30;;;32.38;;
71108;SDS011;59614;51.012;-1.648;2023-02-15T00:18:54;55.55;;;33.80;;
71108;SDS011;59614;51.012;-1.648;2023-02-15T00:21:20;55.33;;;30.88;;
71108;SDS011;59614;51.012;-1.648;2023-02-15T00:23:45;60.97;;;33.20;;
71108;SDS011;59614;51.012;-1.648;2023-02-15T00:26:11;64.63;;;34.92;;
71108;SDS011;59614;51.012;-1.648;2023-02-15T00:28:37;58.58;;;31.73;;
71108;SDS011;59614;51.012;-1.648;2023-02-15T00:31:07;59.70;;;33.45;;
71108;SDS011;59614;51.012;-1.648;2023-02-15T00:33:34;54.75;;;31.88;;
71108;SDS011;59614;51.012;-1.648;2023-02-15T00:36:00;58.47;;;32.53;;
71108;SDS011;59614;51.012;-1.648;2023-02-15T00:38:27;62.33;;;32.72;;
71108;SDS011;59614;51.012;-1.648;2023-02-15T00:40:54;55.00;;;31.13;;
71108;SDS011;59614;51.012;-1.648;2023-02-15T00:43:20;51.95;;;30.52;;
71108;SDS011;59614;51.012;-1.648;2023-02-15T00:45:46;56.63;;;33.28;;
71108;SDS011;59614;51.012;-1.648;2023-02-15T00:48:12;59.63;;;33.80;;
71108;SDS011;59614;51.012;-1.648;2023-02-15T00:50:37;65.28;;;34.40;;
71108;SDS011;59614;51.012;-1.648;2023-02-15T00:53:03;58.10;;;34.92;;
71108;SDS011;59614;51.012;-1.648;2023-02-15T00:55:28;57.75;;;32.83;;
71108;SDS011;59614;51.012;-1.648;2023-02-15T00:57:54;55.33;;;32.47;;
71108;SDS011;59614;51.012;-1.648;2023-02-15T01:00:20;58.22;;;33.45;;
71108;SDS011;59614;51.012;-1.648;2023-02-15T01:02:45;57.58;;;32.92;;
71108;SDS011;59614;51.012;-1.648;2023-02-15T01:05:10;56.58;;;33.78;;
71108;SDS011;59614;51.012;-1.648;2023-02-15T01:07:36;57.15;;;32.50;;
71108;SDS011;59614;51.012;-1.648;2023-02-15T01:10:01;58.25;;;32.97;;
71108;SDS011;59614;51.012;-1.648;2023-02-15T01:12:27;59.08;;;32.08;;
71108;SDS011;59614;51.012;-1.648;2023-02-15T01:14:53;52.03;;;32.85;;
71108;SDS011;59614;51.012;-1.648;2023-02-15T01:17:18;61.40;;;33.63;;
71108;SDS011;59614;51.012;-1.648;2023-02-15T01:19:44;67.65;;;36.05;;
71108;SDS011;59614;51.012;-1.648;2023-02-15T01:22:09;63.88;;;34.15;;
71108;SDS011;59614;51.012;-1.648;2023-02-15T01:24:35;61.05;;;33.50;;
71108;SDS011;59614;51.012;-1.648;2023-02-15T01:27:00;56.38;;;33.38;;
71108;SDS011;59614;51.012;-1.648;2023-02-15T01:29:26;60.65;;;34.10;;
71108;SDS011;59614;51.012;-1.648;2023-02-15T01:31:51;56.42;;;33.45;;
71108;SDS011;59614;51.012;-1.648;2023-02-15T01:34:16;57.90;;;33.90;;
71108;SDS011;59614;51.012;-1.648;2023-02-15T01:36:42;59.08;;;33.53;;
71108;SDS011;59614;51.012;-1.648;2023-02-15T01:39:07;59.38;;;35.13;;
71108;SDS011;59614;51.012;-1.648;2023-02-15T01:41:34;58.63;;;35.25;;
71108;SDS011;59614;51.012;-1.648;2023-02-15T01:44:00;64.60;;;35.20;;
71108;SDS011;59614;51.012;-1.648;2023-02-15T01:46:32;60.92;;;34.80;;
71108;SDS011;59614;51.012;-1.648;2023-02-15T01:49:05;59.85;;;34.70;;
71108;SDS011;59614;51.012;-1.648;2023-02-15T01:51:36;57.78;;;33.95;;
71108;SDS011;59614;51.012;-1.648;2023-02-15T01:56:33;61.67;;;33.03;;
71108;SDS011;59614;51.012;-1.648;2023-02-15T01:59:03;76.88;;;38.67;;
71108;SDS011;59614;51.012;-1.648;2023-02-15T02:01:37;82.90;;;39.70;;
71108;SDS011;59614;51.012;-1.648;2023-02-15T02:06:40;66.20;;;38.22;;
71108;SDS011;59614;51.012;-1.648;2023-02-15T02:09:06;74.57;;;39.30;;
71108;SDS011;59614;51.012;-1.648;2023-02-15T02:11:32;64.97;;;37.30;;
71108;SDS011;59614;51.012;-1.648;2023-02-15T02:13:59;76.05;;;40.35;;
71108;SDS011;59614;51.012;-1.648;2023-02-15T02:16:25;64.07;;;35.90;;
71108;SDS011;59614;51.012;-1.648;2023-02-15T02:22:07;71.35;;;39.28;;
71108;SDS011;59614;51.012;-1.648;2023-02-15T02:30:45;77.13;;;40.75;;
71108;SDS011;59614;51.012;-1.648;2023-02-15T02:41:06;75.53;;;40.35;;
71108;SDS011;59614;51.012;-1.648;2023-02-15T02:43:35;82.35;;;42.33;;
71108;SDS011;59614;51.012;-1.648;2023-02-15T02:46:16;81.35;;;41.85;;
71108;SDS011;59614;51.012;-1.648;2023-02-15T02:51:11;83.93;;;43.28;;
71108;SDS011;59614;51.012;-1.648;2023-02-15T02:53:39;87.13;;;43.30;;
71108;SDS011;59614;51.012;-1.648;2023-02-15T03:01:24;87.80;;;45.30;;
71108;SDS011;59614;51.012;-1.648;2023-02-15T03:04:10;84.50;;;44.55;;
71108;SDS011;59614;51.012;-1.648;2023-02-15T03:12:13;91.07;;;45.83;;
71108;SDS011;59614;51.012;-1.648;2023-02-15T03:14:42;84.82;;;44.20;;
71108;SDS011;59614;51.012;-1.648;2023-02-15T03:17:11;88.03;;;44.67;;
71108;SDS011;59614;51.012;-1.648;2023-02-15T03:19:39;84.40;;;44.85;;
71108;SDS011;59614;51.012;-1.648;2023-02-15T03:22:10;91.13;;;46.28;;
71108;SDS011;59614;51.012;-1.648;2023-02-15T03:24:41;82.75;;;43.33;;
71108;SDS011;59614;51.012;-1.648;2023-02-15T03:27:13;88.03;;;44.53;;
71108;SDS011;59614;51.012;-1.648;2023-02-15T03:29:43;76.25;;;42.15;;
71108;SDS011;59614;51.012;-1.648;2023-02-15T03:32:12;80.85;;;44.25;;
71108;SDS011;59614;51.012;-1.648;2023-02-15T03:34:40;82.68;;;42.58;;
71108;SDS011;59614;51.012;-1.648;2023-02-15T03:40:40;83.65;;;42.88;;
71108;SDS011;59614;51.012;-1.648;2023-02-15T03:46:23;80.03;;;40.80;;
71108;SDS011;59614;51.012;-1.648;2023-02-15T03:49:14;75.13;;;40.83;;
71108;SDS011;59614;51.012;-1.648;2023-02-15T03:51:59;72.25;;;38.75;;
71108;SDS011;59614;51.012;-1.648;2023-02-15T03:54:28;86.85;;;41.60;;
71108;SDS011;59614;51.012;-1.648;2023-02-15T03:57:19;70.78;;;39.28;;
71108;SDS011;59614;51.012;-1.648;2023-02-15T04:00:05;72.25;;;38.25;;
71108;SDS011;59614;51.012;-1.648;2023-02-15T04:05:39;76.38;;;40.10;;
71108;SDS011;59614;51.012;-1.648;2023-02-15T04:08:06;72.97;;;39.17;;
71108;SDS011;59614;51.012;-1.648;2023-02-15T04:10:32;83.90;;;41.35;;
71108;SDS011;59614;51.012;-1.648;2023-02-15T04:15:46;78.78;;;40.13;;
71108;SDS011;59614;51.012;-1.648;2023-02-15T04:21:15;79.05;;;40.90;;
71108;SDS011;59614;51.012;-1.648;2023-02-15T04:23:59;71.53;;;39.03;;
71108;SDS011;59614;51.012;-1.648;2023-02-15T04:26:43;72.00;;;38.85;;
71108;SDS011;59614;51.012;-1.648;2023-02-15T04:29:09;74.55;;;41.67;;
71108;SDS011;59614;51.012;-1.648;2023-02-15T04:31:34;77.75;;;42.03;;
71108;SDS011;59614;51.012;-1.648;2023-02-15T04:34:00;89.82;;;46.05;;
71108;SDS011;59614;51.012;-1.648;2023-02-15T04:36:25;89.05;;;44.63;;
71108;SDS011;59614;51.012;-1.648;2023-02-15T04:38:51;97.82;;;51.22;;
71108;SDS011;59614;51.012;-1.648;2023-02-15T04:41:16;100.28;;;49.47;;
71108;SDS011;59614;51.012;-1.648;2023-02-15T04:43:41;93.32;;;45.30;;
71108;SDS011;59614;51.012;-1.648;2023-02-15T04:46:07;88.57;;;44.08;;
71108;SDS011;59614;51.012;-1.648;2023-02-15T04:48:32;76.72;;;41.30;;
71108;SDS011;59614;51.012;-1.648;2023-02-15T04:50:58;94.63;;;45.47;;
71108;SDS011;59614;51.012;-1.648;2023-02-15T04:53:23;93.50;;;46.03;;
71108;SDS011;59614;51.012;-1.648;2023-02-15T04:55:49;97.65;;;47.67;;
71108;SDS011;59614;51.012;-1.648;2023-02-15T04:58:14;92.72;;;45.72;;
71108;SDS011;59614;51.012;-1.648;2023-02-15T05:00:40;80.20;;;43.40;;
71108;SDS011;59614;51.012;-1.648;2023-02-15T05:03:05;89.32;;;44.08;;
71108;SDS011;59614;51.012;-1.648;2023-02-15T05:05:30;86.05;;;46.45;;
71108;SDS011;59614;51.012;-1.648;2023-02-15T05:07:56;92.00;;;44.28;;
71108;SDS011;59614;51.012;-1.648;2023-02-15T05:10:21;81.70;;;42.72;;
71108;SDS011;59614;51.012;-1.648;2023-02-15T05:12:47;101.47;;;46.67;;
71108;SDS011;59614;51.012;-1.648;2023-02-15T05:15:12;96.95;;;47.40;;
71108;SDS011;59614;51.012;-1.648;2023-02-15T05:17:38;107.20;;;50.30;;
71108;SDS011;59614;51.012;-1.648;2023-02-15T05:20:04;110.78;;;48.55;;
71108;SDS011;59614;51.012;-1.648;2023-02-15T05:22:30;110.72;;;50.53;;
71108;SDS011;59614;51.012;-1.648;2023-02-15T05:24:57;111.55;;;50.42;;
71108;SDS011;59614;51.012;-1.648;2023-02-15T05:27:41;99.20;;;48.20;;
71108;SDS011;59614;51.012;-1.648;2023-02-15T05:30:25;90.13;;;44.40;;
71108;SDS011;59614;51.012;-1.648;2023-02-15T05:32:50;94.68;;;45.30;;
71108;SDS011;59614;51.012;-1.648;2023-02-15T05:35:17;97.45;;;46.33;;
71108;SDS011;59614;51.012;-1.648;2023-02-15T05:37:43;101.43;;;46.90;;
71108;SDS011;59614;51.012;-1.648;2023-02-15T05:40:09;131.40;;;52.40;;
71108;SDS011;59614;51.012;-1.648;2023-02-15T05:42:34;119.80;;;51.97;;
71108;SDS011;59614;51.012;-1.648;2023-02-15T05:45:00;123.72;;;52.75;;
71108;SDS011;59614;51.012;-1.648;2023-02-15T05:47:25;125.85;;;53.15;;
71108;SDS011;59614;51.012;-1.648;2023-02-15T05:49:51;116.10;;;53.47;;
71108;SDS011;59614;51.012;-1.648;2023-02-15T05:52:16;121.10;;;52.65;;
71108;SDS011;59614;51.012;-1.648;2023-02-15T05:54:42;121.88;;;53.72;;
71108;SDS011;59614;51.012;-1.648;2023-02-15T05:57:07;126.80;;;53.88;;
71108;SDS011;59614;51.012;-1.648;2023-02-15T05:59:33;121.15;;;53.53;;
71108;SDS011;59614;51.012;-1.648;2023-02-15T06:01:58;144.48;;;59.50;;
71108;SDS011;59614;51.012;-1.648;2023-02-15T06:04:24;141.90;;;57.83;;
71108;SDS011;59614;51.012;-1.648;2023-02-15T06:06:49;131.25;;;54.95;;
71108;SDS011;59614;51.012;-1.648;2023-02-15T06:09:15;131.52;;;55.30;;
71108;SDS011;59614;51.012;-1.648;2023-02-15T06:11:43;144.13;;;57.53;;
71108;SDS011;59614;51.012;-1.648;2023-02-15T06:14:09;136.68;;;57.05;;
71108;SDS011;59614;51.012;-1.648;2023-02-15T06:16:35;129.75;;;55.83;;
71108;SDS011;59614;51.012;-1.648;2023-02-15T06:19:01;133.02;;;56.35;;
71108;SDS011;59614;51.012;-1.648;2023-02-15T06:21:27;138.68;;;57.75;;
71108;SDS011;59614;51.012;-1.648;2023-02-15T06:23:52;146.70;;;61.17;;
71108;SDS011;59614;51.012;-1.648;2023-02-15T06:26:18;147.52;;;60.25;;
71108;SDS011;59614;51.012;-1.648;2023-02-15T06:28:43;153.18;;;61.20;;
71108;SDS011;59614;51.012;-1.648;2023-02-15T06:31:09;149.95;;;60.63;;
71108;SDS011;59614;51.012;-1.648;2023-02-15T06:33:34;157.43;;;62.55;;
71108;SDS011;59614;51.012;-1.648;2023-02-15T06:36:00;168.82;;;64.57;;
71108;SDS011;59614;51.012;-1.648;2023-02-15T06:38:26;165.07;;;63.85;;
71108;SDS011;59614;51.012;-1.648;2023-02-15T06:40:52;180.93;;;62.15;;
71108;SDS011;59614;51.012;-1.648;2023-02-15T06:43:17;154.68;;;61.15;;
71108;SDS011;59614;51.012;-1.648;2023-02-15T06:45:42;153.20;;;61.00;;
71108;SDS011;59614;51.012;-1.648;2023-02-15T06:48:08;183.07;;;62.72;;
71108;SDS011;59614;51.012;-1.648;2023-02-15T06:50:34;186.15;;;66.72;;
71108;SDS011;59614;51.012;-1.648;2023-02-15T06:53:00;257.02;;;65.15;;
71108;SDS011;59614;51.012;-1.648;2023-02-15T06:55:26;236.90;;;68.45;;
71108;SDS011;59614;51.012;-1.648;2023-02-15T06:57:51;278.83;;;69.32;;
71108;SDS011;59614;51.012;-1.648;2023-02-15T07:00:17;242.88;;;70.40;;
71108;SDS011;59614;51.012;-1.648;2023-02-15T07:02:43;201.38;;;63.95;;
71108;SDS011;59614;51.012;-1.648;2023-02-15T07:05:09;303.52;;;69.22;;
71108;SDS011;59614;51.012;-1.648;2023-02-15T07:07:35;198.85;;;65.90;;
71108;SDS011;59614;51.012;-1.648;2023-02-15T07:10:00;175.32;;;66.70;;
71108;SDS011;59614;51.012;-1.648;2023-02-15T07:12:26;189.50;;;67.00;;
71108;SDS011;59614;51.012;-1.648;2023-02-15T07:15:11;167.75;;;62.35;;
71108;SDS011;59614;51.012;-1.648;2023-02-15T07:17:38;331.42;;;68.38;;
71108;SDS011;59614;51.012;-1.648;2023-02-15T07:20:05;343.20;;;63.90;;
71108;SDS011;59614;51.012;-1.648;2023-02-15T07:22:33;297.98;;;60.33;;
71108;SDS011;59614;51.012;-1.648;2023-02-15T07:25:01;360.60;;;61.00;;
71108;SDS011;59614;51.012;-1.648;2023-02-15T07:27:27;297.25;;;55.67;;
71108;SDS011;59614;51.012;-1.648;2023-02-15T07:29:52;269.27;;;59.88;;
71108;SDS011;59614;51.012;-1.648;2023-02-15T07:32:18;197.65;;;51.00;;
71108;SDS011;59614;51.012;-1.648;2023-02-15T07:34:43;269.90;;;53.95;;
71108;SDS011;59614;51.012;-1.648;2023-02-15T07:37:09;183.18;;;57.60;;
71108;SDS011;59614;51.012;-1.648;2023-02-15T07:39:34;171.70;;;57.03;;
71108;SDS011;59614;51.012;-1.648;2023-02-15T07:42:00;117.55;;;53.75;;
71108;SDS011;59614;51.012;-1.648;2023-02-15T07:44:26;274.38;;;59.25;;
71108;SDS011;59614;51.012;-1.648;2023-02-15T07:46:51;376.13;;;65.22;;
71108;SDS011;59614;51.012;-1.648;2023-02-15T07:49:16;477.65;;;68.60;;
71108;SDS011;59614;51.012;-1.648;2023-02-15T07:51:42;218.82;;;60.25;;
71108;SDS011;59614;51.012;-1.648;2023-02-15T07:54:07;231.45;;;64.10;;
71108;SDS011;59614;51.012;-1.648;2023-02-15T07:56:33;386.83;;;68.07;;
71108;SDS011;59614;51.012;-1.648;2023-02-15T07:59:01;183.32;;;59.33;;
71108;SDS011;59614;51.012;-1.648;2023-02-15T08:01:34;161.63;;;60.72;;
71108;SDS011;59614;51.012;-1.648;2023-02-15T08:04:02;451.35;;;66.70;;
71108;SDS011;59614;51.012;-1.648;2023-02-15T08:06:30;704.78;;;75.78;;
71108;SDS011;59614;51.012;-1.648;2023-02-15T08:08:57;274.40;;;61.38;;
71108;SDS011;59614;51.012;-1.648;2023-02-15T08:11:24;495.77;;;65.15;;
71108;SDS011;59614;51.012;-1.648;2023-02-15T08:14:13;401.02;;;68.45;;
71108;SDS011;59614;51.012;-1.648;2023-02-15T08:22:01;356.30;;;57.25;;
71108;SDS011;59614;51.012;-1.648;2023-02-15T08:27:04;156.30;;;50.80;;
71108;SDS011;59614;51.012;-1.648;2023-02-15T08:29:30;257.15;;;56.83;;
71108;SDS011;59614;51.012;-1.648;2023-02-15T08:31:57;204.88;;;55.90;;
71108;SDS011;59614;51.012;-1.648;2023-02-15T08:34:27;138.38;;;50.80;;
71108;SDS011;59614;51.012;-1.648;2023-02-15T08:36:54;160.82;;;52.42;;
71108;SDS011;59614;51.012;-1.648;2023-02-15T08:39:20;149.15;;;53.47;;
71108;SDS011;59614;51.012;-1.648;2023-02-15T08:41:46;135.45;;;54.03;;
71108;SDS011;59614;51.012;-1.648;2023-02-15T08:44:14;135.55;;;56.70;;
71108;SDS011;59614;51.012;-1.648;2023-02-15T08:46:42;137.70;;;55.83;;
71108;SDS011;59614;51.012;-1.648;2023-02-15T08:49:10;123.28;;;53.08;;
71108;SDS011;59614;51.012;-1.648;2023-02-15T08:51:38;103.60;;;50.70;;
71108;SDS011;59614;51.012;-1.648;2023-02-15T08:54:07;120.28;;;52.33;;
71108;SDS011;59614;51.012;-1.648;2023-02-15T08:56:38;115.40;;;51.10;;
71108;SDS011;59614;51.012;-1.648;2023-02-15T08:59:06;111.10;;;51.07;;
71108;SDS011;59614;51.012;-1.648;2023-02-15T09:01:33;121.93;;;52.50;;
71108;SDS011;59614;51.012;-1.648;2023-02-15T09:04:00;117.22;;;51.05;;
71108;SDS011;59614;51.012;-1.648;2023-02-15T09:06:29;114.40;;;50.38;;
71108;SDS011;59614;51.012;-1.648;2023-02-15T09:08:54;109.85;;;50.30;;
71108;SDS011;59614;51.012;-1.648;2023-02-15T09:11:21;106.55;;;49.72;;
71108;SDS011;59614;51.012;-1.648;2023-02-15T09:16:24;94.75;;;46.45;;
71108;SDS011;59614;51.012;-1.648;2023-02-15T09:18:51;92.45;;;46.80;;
71108;SDS011;59614;51.012;-1.648;2023-02-15T09:21:21;89.32;;;46.50;;
71108;SDS011;59614;51.012;-1.648;2023-02-15T09:23:48;86.25;;;45.88;;
71108;SDS011;59614;51.012;-1.648;2023-02-15T09:26:18;81.47;;;46.13;;
71108;SDS011;59614;51.012;-1.648;2023-02-15T09:28:45;79.13;;;44.83;;
71108;SDS011;59614;51.012;-1.648;2023-02-15T09:31:13;79.18;;;44.97;;
71108;SDS011;59614;51.012;-1.648;2023-02-15T09:33:43;82.88;;;44.85;;
71108;SDS011;59614;51.012;-1.648;2023-02-15T09:36:17;70.13;;;41.53;;
71108;SDS011;59614;51.012;-1.648;2023-02-15T09:38:52;69.90;;;41.10;;
71108;SDS011;59614;51.012;-1.648;2023-02-15T09:44:06;74.65;;;43.28;;
71108;SDS011;59614;51.012;-1.648;2023-02-15T09:53:09;60.38;;;37.05;;
71108;SDS011;59614;51.012;-1.648;2023-02-15T10:20:17;46.22;;;31.70;;
71108;SDS011;59614;51.012;-1.648;2023-02-15T10:31:28;46.93;;;31.50;;
71108;SDS011;59614;51.012;-1.648;2023-02-15T10:34:02;46.35;;;28.90;;
71108;SDS011;59614;51.012;-1.648;2023-02-15T10:48:29;34.30;;;20.63;;
71108;SDS011;59614;51.012;-1.648;2023-02-15T10:51:00;30.45;;;19.15;;
71108;SDS011;59614;51.012;-1.648;2023-02-15T10:56:11;26.60;;;17.67;;
71108;SDS011;59614;51.012;-1.648;2023-02-15T11:01:56;30.75;;;18.92;;
71108;SDS011;59614;51.012;-1.648;2023-02-15T11:07:08;29.85;;;17.77;;
71108;SDS011;59614;51.012;-1.648;2023-02-15T11:09:42;26.85;;;17.13;;
71108;SDS011;59614;51.012;-1.648;2023-02-15T11:12:12;34.15;;;17.42;;
71108;SDS011;59614;51.012;-1.648;2023-02-15T11:14:46;29.17;;;16.92;;
71108;SDS011;59614;51.012;-1.648;2023-02-15T11:17:27;30.15;;;17.45;;
71108;SDS011;59614;51.012;-1.648;2023-02-15T11:20:06;32.85;;;17.80;;
71108;SDS011;59614;51.012;-1.648;2023-02-15T11:22:41;30.30;;;17.63;;
71108;SDS011;59614;51.012;-1.648;2023-02-15T11:25:30;24.77;;;17.17;;
71108;SDS011;59614;51.012;-1.648;2023-02-15T11:27:57;25.88;;;14.93;;
71108;SDS011;59614;51.012;-1.648;2023-02-15T11:32:55;25.88;;;14.10;;
71108;SDS011;59614;51.012;-1.648;2023-02-15T11:35:36;25.77;;;13.00;;
71108;SDS011;59614;51.012;-1.648;2023-02-15T11:38:17;23.27;;;13.45;;
71108;SDS011;59614;51.012;-1.648;2023-02-15T11:40:47;24.52;;;13.98;;
71108;SDS011;59614;51.012;-1.648;2023-02-15T11:46:00;20.65;;;13.05;;
71108;SDS011;59614;51.012;-1.648;2023-02-15T11:48:25;20.90;;;12.80;;
71108;SDS011;59614;51.012;-1.648;2023-02-15T11:50:51;21.63;;;12.43;;
71108;SDS011;59614;51.012;-1.648;2023-02-15T11:53:20;20.02;;;12.65;;
71108;SDS011;59614;51.012;-1.648;2023-02-15T11:55:52;20.92;;;12.30;;
71108;SDS011;59614;51.012;-1.648;2023-02-15T12:01:21;22.15;;;12.18;;
71108;SDS011;59614;51.012;-1.648;2023-02-15T12:03:54;26.85;;;13.15;;
71108;SDS011;59614;51.012;-1.648;2023-02-15T12:06:28;26.48;;;13.43;;
71108;SDS011;59614;51.012;-1.648;2023-02-15T12:11:31;22.63;;;12.65;;
71108;SDS011;59614;51.012;-1.648;2023-02-15T12:14:04;23.10;;;13.23;;
71108;SDS011;59614;51.012;-1.648;2023-02-15T12:19:23;27.00;;;12.50;;
71108;SDS011;59614;51.012;-1.648;2023-02-15T12:21:50;23.50;;;12.57;;
71108;SDS011;59614;51.012;-1.648;2023-02-15T12:26:45;23.10;;;12.38;;
71108;SDS011;59614;51.012;-1.648;2023-02-15T12:29:22;25.67;;;11.88;;
71108;SDS011;59614;51.012;-1.648;2023-02-15T12:31:52;19.58;;;12.38;;
71108;SDS011;59614;51.012;-1.648;2023-02-15T12:34:22;21.95;;;12.55;;
71108;SDS011;59614;51.012;-1.648;2023-02-15T12:36:52;26.58;;;12.80;;
71108;SDS011;59614;51.012;-1.648;2023-02-15T12:39:27;26.73;;;12.75;;
71108;SDS011;59614;51.012;-1.648;2023-02-15T12:44:21;20.15;;;12.20;;
71108;SDS011;59614;51.012;-1.648;2023-02-15T12:49:43;23.30;;;12.35;;
71108;SDS011;59614;51.012;-1.648;2023-02-15T12:54:45;22.58;;;13.27;;
71108;SDS011;59614;51.012;-1.648;2023-02-15T12:57:20;25.50;;;13.02;;
71108;SDS011;59614;51.012;-1.648;2023-02-15T13:00:00;21.08;;;12.63;;
71108;SDS011;59614;51.012;-1.648;2023-02-15T13:02:40;19.77;;;12.50;;
71108;SDS011;59614;51.012;-1.648;2023-02-15T13:08:00;24.30;;;12.68;;
71108;SDS011;59614;51.012;-1.648;2023-02-15T13:10:37;22.48;;;12.70;;
71108;SDS011;59614;51.012;-1.648;2023-02-15T13:13:26;19.48;;;12.40;;
71108;SDS011;59614;51.012;-1.648;2023-02-15T13:16:00;22.45;;;13.18;;
71108;SDS011;59614;51.012;-1.648;2023-02-15T13:18:38;22.35;;;13.73;;
71108;SDS011;59614;51.012;-1.648;2023-02-15T13:23:49;22.60;;;12.15;;
71108;SDS011;59614;51.012;-1.648;2023-02-15T13:26:22;22.20;;;12.10;;
71108;SDS011;59614;51.012;-1.648;2023-02-15T13:28:55;23.67;;;12.10;;
71108;SDS011;59614;51.012;-1.648;2023-02-15T13:31:24;18.33;;;10.75;;
71108;SDS011;59614;51.012;-1.648;2023-02-15T13:33:53;20.20;;;11.10;;
71108;SDS011;59614;51.012;-1.648;2023-02-15T13:39:01;22.85;;;11.00;;
71108;SDS011;59614;51.012;-1.648;2023-02-15T13:44:33;20.73;;;10.18;;
71108;SDS011;59614;51.012;-1.648;2023-02-15T13:56:47;18.92;;;9.95;;
71108;SDS011;59614;51.012;-1.648;2023-02-15T13:59:28;22.05;;;9.43;;
71108;SDS011;59614;51.012;-1.648;2023-02-15T14:04:40;19.98;;;10.52;;
71108;SDS011;59614;51.012;-1.648;2023-02-15T14:07:30;24.40;;;11.02;;
71108;SDS011;59614;51.012;-1.648;2023-02-15T14:16:20;21.73;;;10.90;;
71108;SDS011;59614;51.012;-1.648;2023-02-15T14:21:42;20.77;;;10.23;;
71108;SDS011;59614;51.012;-1.648;2023-02-15T14:29:47;15.75;;;9.60;;
71108;SDS011;59614;51.012;-1.648;2023-02-15T14:34:59;20.65;;;10.23;;
71108;SDS011;59614;51.012;-1.648;2023-02-15T14:37:41;23.08;;;9.80;;
71108;SDS011;59614;51.012;-1.648;2023-02-15T14:43:25;14.85;;;9.05;;
71108;SDS011;59614;51.012;-1.648;2023-02-15T14:48:33;16.50;;;8.57;;
71108;SDS011;59614;51.012;-1.648;2023-02-15T14:51:07;25.70;;;8.25;;
71108;SDS011;59614;51.012;-1.648;2023-02-15T14:53:34;16.67;;;8.95;;
71108;SDS011;59614;51.012;-1.648;2023-02-15T14:56:06;19.67;;;9.00;;
71108;SDS011;59614;51.012;-1.648;2023-02-15T15:01:26;21.85;;;9.20;;
71108;SDS011;59614;51.012;-1.648;2023-02-15T15:03:55;18.92;;;9.35;;
71108;SDS011;59614;51.012;-1.648;2023-02-15T15:06:26;17.60;;;9.30;;
71108;SDS011;59614;51.012;-1.648;2023-02-15T15:11:45;18.45;;;9.55;;
71108;SDS011;59614;51.012;-1.648;2023-02-15T15:17:00;21.08;;;10.43;;
71108;SDS011;59614;51.012;-1.648;2023-02-15T15:22:18;22.65;;;11.80;;
71108;SDS011;59614;51.012;-1.648;2023-02-15T15:33:29;21.98;;;10.35;;
71108;SDS011;59614;51.012;-1.648;2023-02-15T15:38:38;18.48;;;9.23;;
71108;SDS011;59614;51.012;-1.648;2023-02-15T15:49:54;20.80;;;8.73;;
71108;SDS011;59614;51.012;-1.648;2023-02-15T15:52:22;19.83;;;8.45;;
71108;SDS011;59614;51.012;-1.648;2023-02-15T15:55:02;19.83;;;9.02;;
71108;SDS011;59614;51.012;-1.648;2023-02-15T15:57:38;16.27;;;7.93;;
71108;SDS011;59614;51.012;-1.648;2023-02-15T16:00:34;17.67;;;8.82;;
71108;SDS011;59614;51.012;-1.648;2023-02-15T16:02:59;16.90;;;8.05;;
71108;SDS011;59614;51.012;-1.648;2023-02-15T16:05:25;16.83;;;8.35;;
71108;SDS011;59614;51.012;-1.648;2023-02-15T16:07:50;16.92;;;8.43;;
71108;SDS011;59614;51.012;-1.648;2023-02-15T16:10:23;19.20;;;8.60;;
71108;SDS011;59614;51.012;-1.648;2023-02-15T16:12:53;23.30;;;9.00;;
71108;SDS011;59614;51.012;-1.648;2023-02-15T16:15:20;25.35;;;8.30;;
71108;SDS011;59614;51.012;-1.648;2023-02-15T16:17:52;17.42;;;8.30;;
71108;SDS011;59614;51.012;-1.648;2023-02-15T16:23:16;24.20;;;8.65;;
71108;SDS011;59614;51.012;-1.648;2023-02-15T16:28:27;17.42;;;8.00;;
71108;SDS011;59614;51.012;-1.648;2023-02-15T16:31:27;14.93;;;7.50;;
71108;SDS011;59614;51.012;-1.648;2023-02-15T16:33:53;24.60;;;8.48;;
71108;SDS011;59614;51.012;-1.648;2023-02-15T16:41:15;21.27;;;7.60;;
71108;SDS011;59614;51.012;-1.648;2023-02-15T16:43:46;18.63;;;7.53;;
71108;SDS011;59614;51.012;-1.648;2023-02-15T16:46:30;26.23;;;9.65;;
71108;SDS011;59614;51.012;-1.648;2023-02-15T16:48:59;34.13;;;13.95;;
71108;SDS011;59614;51.012;-1.648;2023-02-15T16:51:28;25.20;;;10.30;;
71108;SDS011;59614;51.012;-1.648;2023-02-15T16:53:57;36.97;;;12.60;;
71108;SDS011;59614;51.012;-1.648;2023-02-15T16:56:30;33.53;;;12.35;;
71108;SDS011;59614;51.012;-1.648;2023-02-15T16:58:57;24.33;;;9.63;;
71108;SDS011;59614;51.012;-1.648;2023-02-15T17:01:26;25.93;;;8.30;;
71108;SDS011;59614;51.012;-1.648;2023-02-15T17:04:22;21.88;;;9.43;;
71108;SDS011;59614;51.012;-1.648;2023-02-15T17:07:04;21.48;;;9.77;;
71108;SDS011;59614;51.012;-1.648;2023-02-15T17:09:39;26.98;;;9.55;;
71108;SDS011;59614;51.012;-1.648;2023-02-15T17:15:30;29.25;;;10.55;;
71108;SDS011;59614;51.012;-1.648;2023-02-15T17:18:03;45.17;;;11.77;;
71108;SDS011;59614;51.012;-1.648;2023-02-15T17:20:38;38.67;;;10.20;;
71108;SDS011;59614;51.012;-1.648;2023-02-15T17:23:07;38.63;;;10.73;;
71108;SDS011;59614;51.012;-1.648;2023-02-15T17:25:46;38.53;;;11.85;;
71108;SDS011;59614;51.012;-1.648;2023-02-15T17:28:18;31.58;;;11.80;;
71108;SDS011;59614;51.012;-1.648;2023-02-15T17:30:46;42.75;;;12.20;;
71108;SDS011;59614;51.012;-1.648;2023-02-15T17:33:25;30.55;;;12.88;;
71108;SDS011;59614;51.012;-1.648;2023-02-15T17:38:29;31.35;;;12.48;;
71108;SDS011;59614;51.012;-1.648;2023-02-15T17:40:54;36.38;;;12.88;;
71108;SDS011;59614;51.012;-1.648;2023-02-15T17:43:21;36.45;;;12.60;;
71108;SDS011;59614;51.012;-1.648;2023-02-15T17:45:47;41.55;;;13.82;;
71108;SDS011;59614;51.012;-1.648;2023-02-15T17:48:33;29.65;;;12.75;;
71108;SDS011;59614;51.012;-1.648;2023-02-15T17:51:01;45.60;;;14.25;;
71108;SDS011;59614;51.012;-1.648;2023-02-15T17:53:29;44.40;;;13.57;;
71108;SDS011;59614;51.012;-1.648;2023-02-15T17:55:56;40.33;;;13.77;;
71108;SDS011;59614;51.012;-1.648;2023-02-15T17:58:22;35.72;;;14.32;;
71108;SDS011;59614;51.012;-1.648;2023-02-15T18:00:49;38.38;;;14.75;;
71108;SDS011;59614;51.012;-1.648;2023-02-15T18:03:44;39.90;;;15.00;;
71108;SDS011;59614;51.012;-1.648;2023-02-15T18:06:31;37.92;;;14.23;;
71108;SDS011;59614;51.012;-1.648;2023-02-15T18:09:17;36.35;;;15.43;;
71108;SDS011;59614;51.012;-1.648;2023-02-15T18:12:25;40.03;;;15.77;;
71108;SDS011;59614;51.012;-1.648;2023-02-15T18:14:50;47.85;;;16.23;;
71108;SDS011;59614;51.012;-1.648;2023-02-15T18:17:18;41.22;;;15.85;;
71108;SDS011;59614;51.012;-1.648;2023-02-15T18:19:46;40.13;;;15.88;;
71108;SDS011;59614;51.012;-1.648;2023-02-15T18:22:13;40.90;;;16.13;;
71108;SDS011;59614;51.012;-1.648;2023-02-15T18:24:40;42.00;;;15.30;;